sensor_id;sensor_type;location;lat;lon;timestamp;temperature;humidity
44063;DHT22;29727;47.606;19.130;2023-05-16T00:01:14;16.70;81.30
44063;DHT22;29727;47.606;19.130;2023-05-16T00:03:41;16.70;80.70
44063;DHT22;29727;47.606;19.130;2023-05-16T00:06:07;16.60;81.10
44063;DHT22;29727;47.606;19.130;2023-05-16T00:08:34;16.60;81.50
44063;DHT22;29727;47.606;19.130;2023-05-16T00:10:59;16.60;81.40
44063;DHT22;29727;47.606;19.130;2023-05-16T00:13:26;16.60;81.40
44063;DHT22;29727;47.606;19.130;2023-05-16T00:15:52;16.60;81.50
44063;DHT22;29727;47.606;19.130;2023-05-16T00:18:21;16.50;81.50
44063;DHT22;29727;47.606;19.130;2023-05-16T00:20:48;16.50;81.80
44063;DHT22;29727;47.606;19.130;2023-05-16T00:23:14;16.50;81.90
44063;DHT22;29727;47.606;19.130;2023-05-16T00:25:41;16.50;82.00
44063;DHT22;29727;47.606;19.130;2023-05-16T00:30:33;16.50;81.70
44063;DHT22;29727;47.606;19.130;2023-05-16T00:32:59;16.40;82.20
44063;DHT22;29727;47.606;19.130;2023-05-16T00:35:25;16.40;82.20
44063;DHT22;29727;47.606;19.130;2023-05-16T00:37:51;16.40;82.20
44063;DHT22;29727;47.606;19.130;2023-05-16T00:40:17;16.40;82.10
44063;DHT22;29727;47.606;19.130;2023-05-16T00:42:43;16.40;82.20
44063;DHT22;29727;47.606;19.130;2023-05-16T00:45:09;16.40;82.40
44063;DHT22;29727;47.606;19.130;2023-05-16T00:47:35;16.40;82.30
44063;DHT22;29727;47.606;19.130;2023-05-16T00:50:01;16.40;82.50
44063;DHT22;29727;47.606;19.130;2023-05-16T00:52:27;16.40;82.30
44063;DHT22;29727;47.606;19.130;2023-05-16T00:54:53;16.40;82.80
44063;DHT22;29727;47.606;19.130;2023-05-16T00:57:19;16.40;82.80
44063;DHT22;29727;47.606;19.130;2023-05-16T00:59:46;16.50;82.80
44063;DHT22;29727;47.606;19.130;2023-05-16T01:02:12;16.40;82.00
44063;DHT22;29727;47.606;19.130;2023-05-16T01:04:39;16.40;82.50
44063;DHT22;29727;47.606;19.130;2023-05-16T01:07:05;16.50;82.60
44063;DHT22;29727;47.606;19.130;2023-05-16T01:09:31;16.50;82.80
44063;DHT22;29727;47.606;19.130;2023-05-16T01:28:15;16.40;83.40
44063;DHT22;29727;47.606;19.130;2023-05-16T01:30:42;16.40;84.10
44063;DHT22;29727;47.606;19.130;2023-05-16T01:33:08;16.30;84.00
44063;DHT22;29727;47.606;19.130;2023-05-16T01:36:02;16.30;83.90
44063;DHT22;29727;47.606;19.130;2023-05-16T01:41:40;16.30;84.00
44063;DHT22;29727;47.606;19.130;2023-05-16T01:44:22;16.30;84.10
44063;DHT22;29727;47.606;19.130;2023-05-16T01:46:54;16.30;83.90
44063;DHT22;29727;47.606;19.130;2023-05-16T01:49:42;16.30;83.90
44063;DHT22;29727;47.606;19.130;2023-05-16T01:52:20;16.30;83.60
44063;DHT22;29727;47.606;19.130;2023-05-16T01:54:52;16.30;84.20
44063;DHT22;29727;47.606;19.130;2023-05-16T01:57:23;16.30;83.90
44063;DHT22;29727;47.606;19.130;2023-05-16T01:59:50;16.30;83.70
44063;DHT22;29727;47.606;19.130;2023-05-16T02:02:19;16.30;83.90
44063;DHT22;29727;47.606;19.130;2023-05-16T02:04:45;16.30;83.70
44063;DHT22;29727;47.606;19.130;2023-05-16T02:07:12;16.30;83.50
44063;DHT22;29727;47.606;19.130;2023-05-16T02:09:39;16.30;83.40
44063;DHT22;29727;47.606;19.130;2023-05-16T02:12:05;16.30;83.60
44063;DHT22;29727;47.606;19.130;2023-05-16T02:14:31;16.30;83.80
44063;DHT22;29727;47.606;19.130;2023-05-16T02:16:57;16.30;83.50
44063;DHT22;29727;47.606;19.130;2023-05-16T02:19:23;16.30;83.40
44063;DHT22;29727;47.606;19.130;2023-05-16T02:21:49;16.20;83.50
44063;DHT22;29727;47.606;19.130;2023-05-16T02:24:15;16.20;83.70
44063;DHT22;29727;47.606;19.130;2023-05-16T02:26:41;16.20;83.90
44063;DHT22;29727;47.606;19.130;2023-05-16T02:29:08;16.10;84.20
44063;DHT22;29727;47.606;19.130;2023-05-16T02:31:33;16.20;84.60
44063;DHT22;29727;47.606;19.130;2023-05-16T02:34:00;16.20;84.90
44063;DHT22;29727;47.606;19.130;2023-05-16T02:36:26;16.20;84.70
44063;DHT22;29727;47.606;19.130;2023-05-16T02:38:52;16.20;83.90
44063;DHT22;29727;47.606;19.130;2023-05-16T02:41:18;16.20;84.20
44063;DHT22;29727;47.606;19.130;2023-05-16T02:43:45;16.10;84.10
44063;DHT22;29727;47.606;19.130;2023-05-16T02:46:25;16.10;84.20
44063;DHT22;29727;47.606;19.130;2023-05-16T02:48:52;16.00;84.40
44063;DHT22;29727;47.606;19.130;2023-05-16T02:51:23;15.90;85.20
44063;DHT22;29727;47.606;19.130;2023-05-16T02:53:49;15.70;84.80
44063;DHT22;29727;47.606;19.130;2023-05-16T02:56:15;15.60;85.70
44063;DHT22;29727;47.606;19.130;2023-05-16T02:58:41;15.50;86.70
44063;DHT22;29727;47.606;19.130;2023-05-16T03:01:08;15.40;87.20
44063;DHT22;29727;47.606;19.130;2023-05-16T03:03:35;15.40;87.80
44063;DHT22;29727;47.606;19.130;2023-05-16T03:06:01;15.30;88.30
44063;DHT22;29727;47.606;19.130;2023-05-16T03:08:26;15.30;88.70
44063;DHT22;29727;47.606;19.130;2023-05-16T03:10:52;15.40;88.70
44063;DHT22;29727;47.606;19.130;2023-05-16T03:13:18;15.40;89.10
44063;DHT22;29727;47.606;19.130;2023-05-16T03:15:44;15.50;87.80
44063;DHT22;29727;47.606;19.130;2023-05-16T03:18:10;15.40;88.20
44063;DHT22;29727;47.606;19.130;2023-05-16T03:20:36;15.50;87.10
44063;DHT22;29727;47.606;19.130;2023-05-16T03:23:02;15.50;86.80
44063;DHT22;29727;47.606;19.130;2023-05-16T03:25:32;15.50;86.80
44063;DHT22;29727;47.606;19.130;2023-05-16T03:27:57;15.60;87.00
44063;DHT22;29727;47.606;19.130;2023-05-16T03:30:23;15.60;87.10
44063;DHT22;29727;47.606;19.130;2023-05-16T03:32:50;15.60;87.10
44063;DHT22;29727;47.606;19.130;2023-05-16T03:35:16;15.60;87.20
44063;DHT22;29727;47.606;19.130;2023-05-16T03:37:42;15.60;87.10
44063;DHT22;29727;47.606;19.130;2023-05-16T03:40:08;15.60;86.30
44063;DHT22;29727;47.606;19.130;2023-05-16T03:42:33;15.70;86.30
44063;DHT22;29727;47.606;19.130;2023-05-16T03:44:59;15.70;86.50
44063;DHT22;29727;47.606;19.130;2023-05-16T03:47:25;15.70;86.40
44063;DHT22;29727;47.606;19.130;2023-05-16T03:49:51;15.70;86.70
44063;DHT22;29727;47.606;19.130;2023-05-16T03:52:17;15.70;85.20
44063;DHT22;29727;47.606;19.130;2023-05-16T03:54:43;15.70;85.60
44063;DHT22;29727;47.606;19.130;2023-05-16T03:57:10;15.70;85.70
44063;DHT22;29727;47.606;19.130;2023-05-16T03:59:35;15.70;85.80
44063;DHT22;29727;47.606;19.130;2023-05-16T04:02:03;15.80;85.90
44063;DHT22;29727;47.606;19.130;2023-05-16T04:04:29;15.70;86.30
44063;DHT22;29727;47.606;19.130;2023-05-16T04:06:55;15.70;85.70
44063;DHT22;29727;47.606;19.130;2023-05-16T04:09:20;15.60;86.00
44063;DHT22;29727;47.606;19.130;2023-05-16T04:11:46;15.60;86.30
44063;DHT22;29727;47.606;19.130;2023-05-16T04:14:12;15.60;87.30
44063;DHT22;29727;47.606;19.130;2023-05-16T04:16:38;15.60;86.30
44063;DHT22;29727;47.606;19.130;2023-05-16T04:19:04;15.60;85.80
44063;DHT22;29727;47.606;19.130;2023-05-16T04:21:30;15.60;86.30
44063;DHT22;29727;47.606;19.130;2023-05-16T04:23:56;15.50;86.20
44063;DHT22;29727;47.606;19.130;2023-05-16T04:26:22;15.60;86.50
44063;DHT22;29727;47.606;19.130;2023-05-16T04:28:49;15.50;86.70
44063;DHT22;29727;47.606;19.130;2023-05-16T04:31:15;15.60;86.90
44063;DHT22;29727;47.606;19.130;2023-05-16T04:33:41;15.50;87.20
44063;DHT22;29727;47.606;19.130;2023-05-16T04:36:07;15.50;88.00
44063;DHT22;29727;47.606;19.130;2023-05-16T04:38:32;15.60;87.90
44063;DHT22;29727;47.606;19.130;2023-05-16T04:40:58;15.60;87.70
44063;DHT22;29727;47.606;19.130;2023-05-16T04:43:24;15.60;87.40
44063;DHT22;29727;47.606;19.130;2023-05-16T04:45:50;15.70;86.70
44063;DHT22;29727;47.606;19.130;2023-05-16T04:48:18;15.70;86.30
44063;DHT22;29727;47.606;19.130;2023-05-16T04:50:44;15.70;86.10
44063;DHT22;29727;47.606;19.130;2023-05-16T04:53:09;15.80;84.70
44063;DHT22;29727;47.606;19.130;2023-05-16T04:55:35;15.80;84.80
44063;DHT22;29727;47.606;19.130;2023-05-16T04:58:01;15.80;84.20
44063;DHT22;29727;47.606;19.130;2023-05-16T05:00:27;15.90;84.60
44063;DHT22;29727;47.606;19.130;2023-05-16T05:02:53;15.90;84.10
44063;DHT22;29727;47.606;19.130;2023-05-16T05:05:18;15.90;84.10
44063;DHT22;29727;47.606;19.130;2023-05-16T05:07:44;16.00;84.40
44063;DHT22;29727;47.606;19.130;2023-05-16T05:10:10;16.00;84.50
44063;DHT22;29727;47.606;19.130;2023-05-16T05:12:36;16.00;84.00
44063;DHT22;29727;47.606;19.130;2023-05-16T05:15:03;16.00;83.90
44063;DHT22;29727;47.606;19.130;2023-05-16T05:17:28;16.00;83.80
44063;DHT22;29727;47.606;19.130;2023-05-16T05:19:54;16.00;83.90
44063;DHT22;29727;47.606;19.130;2023-05-16T05:22:20;16.10;83.40
44063;DHT22;29727;47.606;19.130;2023-05-16T05:24:45;16.10;83.50
44063;DHT22;29727;47.606;19.130;2023-05-16T05:27:12;16.10;84.00
44063;DHT22;29727;47.606;19.130;2023-05-16T05:29:37;16.10;84.10
44063;DHT22;29727;47.606;19.130;2023-05-16T05:32:03;16.10;84.10
44063;DHT22;29727;47.606;19.130;2023-05-16T05:34:29;16.10;84.10
44063;DHT22;29727;47.606;19.130;2023-05-16T05:36:55;16.20;83.80
44063;DHT22;29727;47.606;19.130;2023-05-16T05:39:21;16.20;83.50
44063;DHT22;29727;47.606;19.130;2023-05-16T05:41:47;16.20;83.60
44063;DHT22;29727;47.606;19.130;2023-05-16T05:44:13;16.20;83.20
44063;DHT22;29727;47.606;19.130;2023-05-16T05:46:39;16.20;83.50
44063;DHT22;29727;47.606;19.130;2023-05-16T05:49:04;16.20;82.60
44063;DHT22;29727;47.606;19.130;2023-05-16T05:51:30;16.20;83.10
44063;DHT22;29727;47.606;19.130;2023-05-16T05:53:56;16.10;83.60
44063;DHT22;29727;47.606;19.130;2023-05-16T05:56:22;16.10;84.10
44063;DHT22;29727;47.606;19.130;2023-05-16T05:58:50;16.10;84.70
44063;DHT22;29727;47.606;19.130;2023-05-16T06:01:15;16.10;85.00
44063;DHT22;29727;47.606;19.130;2023-05-16T06:03:41;16.10;85.20
44063;DHT22;29727;47.606;19.130;2023-05-16T06:06:08;16.10;84.60
44063;DHT22;29727;47.606;19.130;2023-05-16T06:08:34;16.10;84.80
44063;DHT22;29727;47.606;19.130;2023-05-16T06:11:00;16.10;84.90
44063;DHT22;29727;47.606;19.130;2023-05-16T06:13:26;16.10;83.90
44063;DHT22;29727;47.606;19.130;2023-05-16T06:15:52;16.10;84.00
44063;DHT22;29727;47.606;19.130;2023-05-16T06:18:19;16.00;84.10
44063;DHT22;29727;47.606;19.130;2023-05-16T06:20:45;16.00;83.90
44063;DHT22;29727;47.606;19.130;2023-05-16T06:23:10;15.90;84.30
44063;DHT22;29727;47.606;19.130;2023-05-16T06:25:37;15.90;84.80
44063;DHT22;29727;47.606;19.130;2023-05-16T06:28:02;15.90;85.30
44063;DHT22;29727;47.606;19.130;2023-05-16T06:30:28;15.90;85.10
44063;DHT22;29727;47.606;19.130;2023-05-16T06:32:54;15.90;84.80
44063;DHT22;29727;47.606;19.130;2023-05-16T06:35:19;15.80;85.30
44063;DHT22;29727;47.606;19.130;2023-05-16T06:37:45;15.90;85.00
44063;DHT22;29727;47.606;19.130;2023-05-16T06:40:11;15.80;84.60
44063;DHT22;29727;47.606;19.130;2023-05-16T06:42:37;15.80;84.90
44063;DHT22;29727;47.606;19.130;2023-05-16T06:45:03;15.80;84.70
44063;DHT22;29727;47.606;19.130;2023-05-16T06:47:29;15.80;84.40
44063;DHT22;29727;47.606;19.130;2023-05-16T06:49:54;15.80;84.80
44063;DHT22;29727;47.606;19.130;2023-05-16T06:52:20;15.80;84.20
44063;DHT22;29727;47.606;19.130;2023-05-16T06:54:46;15.80;85.00
44063;DHT22;29727;47.606;19.130;2023-05-16T06:57:12;15.80;85.30
44063;DHT22;29727;47.606;19.130;2023-05-16T06:59:38;15.80;85.00
44063;DHT22;29727;47.606;19.130;2023-05-16T07:02:04;15.80;85.10
44063;DHT22;29727;47.606;19.130;2023-05-16T07:04:30;15.90;85.70
44063;DHT22;29727;47.606;19.130;2023-05-16T07:06:56;15.90;85.40
44063;DHT22;29727;47.606;19.130;2023-05-16T07:09:21;15.90;85.40
44063;DHT22;29727;47.606;19.130;2023-05-16T07:11:47;15.90;85.60
44063;DHT22;29727;47.606;19.130;2023-05-16T07:14:13;15.90;86.00
44063;DHT22;29727;47.606;19.130;2023-05-16T07:16:38;15.90;85.80
44063;DHT22;29727;47.606;19.130;2023-05-16T07:19:04;15.90;86.00
44063;DHT22;29727;47.606;19.130;2023-05-16T07:21:30;16.00;86.00
44063;DHT22;29727;47.606;19.130;2023-05-16T07:23:56;16.00;85.60
44063;DHT22;29727;47.606;19.130;2023-05-16T07:26:22;16.00;86.10
44063;DHT22;29727;47.606;19.130;2023-05-16T07:28:51;16.10;86.10
44063;DHT22;29727;47.606;19.130;2023-05-16T07:31:17;16.10;86.00
44063;DHT22;29727;47.606;19.130;2023-05-16T07:33:44;16.10;85.70
44063;DHT22;29727;47.606;19.130;2023-05-16T07:36:11;16.20;85.50
44063;DHT22;29727;47.606;19.130;2023-05-16T07:38:37;16.20;86.10
44063;DHT22;29727;47.606;19.130;2023-05-16T07:41:03;16.20;86.20
44063;DHT22;29727;47.606;19.130;2023-05-16T07:43:29;16.20;86.50
44063;DHT22;29727;47.606;19.130;2023-05-16T07:45:54;16.20;86.10
44063;DHT22;29727;47.606;19.130;2023-05-16T07:48:20;16.20;86.60
44063;DHT22;29727;47.606;19.130;2023-05-16T07:50:46;16.20;86.80
44063;DHT22;29727;47.606;19.130;2023-05-16T07:53:11;16.10;86.60
44063;DHT22;29727;47.606;19.130;2023-05-16T07:55:37;16.10;87.60
44063;DHT22;29727;47.606;19.130;2023-05-16T07:58:03;16.10;88.00
44063;DHT22;29727;47.606;19.130;2023-05-16T08:00:28;16.20;87.60
44063;DHT22;29727;47.606;19.130;2023-05-16T08:02:55;16.10;87.60
44063;DHT22;29727;47.606;19.130;2023-05-16T08:05:21;16.10;88.10
44063;DHT22;29727;47.606;19.130;2023-05-16T08:07:48;16.10;88.20
44063;DHT22;29727;47.606;19.130;2023-05-16T08:10:13;16.10;88.00
44063;DHT22;29727;47.606;19.130;2023-05-16T08:12:39;16.20;88.40
44063;DHT22;29727;47.606;19.130;2023-05-16T08:15:05;16.20;88.20
44063;DHT22;29727;47.606;19.130;2023-05-16T08:17:31;16.10;89.20
44063;DHT22;29727;47.606;19.130;2023-05-16T08:19:57;16.20;88.90
44063;DHT22;29727;47.606;19.130;2023-05-16T08:22:25;16.10;88.90
44063;DHT22;29727;47.606;19.130;2023-05-16T08:24:51;16.10;89.50
44063;DHT22;29727;47.606;19.130;2023-05-16T08:27:17;16.20;89.50
44063;DHT22;29727;47.606;19.130;2023-05-16T08:29:42;16.20;90.00
44063;DHT22;29727;47.606;19.130;2023-05-16T08:32:08;16.20;90.00
44063;DHT22;29727;47.606;19.130;2023-05-16T08:34:37;16.20;90.00
44063;DHT22;29727;47.606;19.130;2023-05-16T08:37:03;16.20;90.00
44063;DHT22;29727;47.606;19.130;2023-05-16T08:39:29;16.30;90.10
44063;DHT22;29727;47.606;19.130;2023-05-16T08:41:55;16.30;90.10
44063;DHT22;29727;47.606;19.130;2023-05-16T08:44:21;16.40;89.40
44063;DHT22;29727;47.606;19.130;2023-05-16T08:46:51;16.40;89.90
44063;DHT22;29727;47.606;19.130;2023-05-16T08:49:18;16.40;90.10
44063;DHT22;29727;47.606;19.130;2023-05-16T08:51:46;16.50;90.10
44063;DHT22;29727;47.606;19.130;2023-05-16T08:54:14;16.50;90.20
44063;DHT22;29727;47.606;19.130;2023-05-16T08:56:43;16.50;90.20
44063;DHT22;29727;47.606;19.130;2023-05-16T08:59:10;16.50;90.10
44063;DHT22;29727;47.606;19.130;2023-05-16T09:01:36;16.50;89.70
44063;DHT22;29727;47.606;19.130;2023-05-16T09:04:03;16.50;90.00
44063;DHT22;29727;47.606;19.130;2023-05-16T09:06:29;16.50;90.20
44063;DHT22;29727;47.606;19.130;2023-05-16T09:08:55;16.50;90.50
44063;DHT22;29727;47.606;19.130;2023-05-16T09:11:21;16.50;90.60
44063;DHT22;29727;47.606;19.130;2023-05-16T09:13:47;16.50;90.60
44063;DHT22;29727;47.606;19.130;2023-05-16T09:16:18;16.50;90.30
44063;DHT22;29727;47.606;19.130;2023-05-16T09:18:46;16.50;90.30
44063;DHT22;29727;47.606;19.130;2023-05-16T09:21:17;16.50;90.30
44063;DHT22;29727;47.606;19.130;2023-05-16T09:23:43;16.50;90.60
44063;DHT22;29727;47.606;19.130;2023-05-16T09:26:09;16.50;90.70
44063;DHT22;29727;47.606;19.130;2023-05-16T09:28:38;16.50;90.60
44063;DHT22;29727;47.606;19.130;2023-05-16T09:31:22;16.50;90.70
44063;DHT22;29727;47.606;19.130;2023-05-16T09:33:49;16.60;90.90
44063;DHT22;29727;47.606;19.130;2023-05-16T09:36:15;16.60;91.00
44063;DHT22;29727;47.606;19.130;2023-05-16T09:38:41;16.60;90.60
44063;DHT22;29727;47.606;19.130;2023-05-16T09:41:09;16.70;90.40
44063;DHT22;29727;47.606;19.130;2023-05-16T09:43:38;16.60;90.10
44063;DHT22;29727;47.606;19.130;2023-05-16T09:46:04;16.60;90.10
44063;DHT22;29727;47.606;19.130;2023-05-16T09:48:31;16.60;90.20
44063;DHT22;29727;47.606;19.130;2023-05-16T09:50:57;16.50;90.40
44063;DHT22;29727;47.606;19.130;2023-05-16T09:53:31;16.50;90.40
44063;DHT22;29727;47.606;19.130;2023-05-16T09:56:02;16.50;90.90
44063;DHT22;29727;47.606;19.130;2023-05-16T09:58:29;16.50;90.90
44063;DHT22;29727;47.606;19.130;2023-05-16T10:00:56;16.60;90.60
44063;DHT22;29727;47.606;19.130;2023-05-16T10:03:24;16.50;90.80
44063;DHT22;29727;47.606;19.130;2023-05-16T10:05:50;16.50;90.80
44063;DHT22;29727;47.606;19.130;2023-05-16T10:08:23;16.50;91.00
44063;DHT22;29727;47.606;19.130;2023-05-16T10:10:54;16.60;91.20
44063;DHT22;29727;47.606;19.130;2023-05-16T10:13:21;16.60;91.10
44063;DHT22;29727;47.606;19.130;2023-05-16T10:15:48;16.60;91.10
44063;DHT22;29727;47.606;19.130;2023-05-16T10:18:16;16.70;91.00
44063;DHT22;29727;47.606;19.130;2023-05-16T10:20:44;16.70;91.00
44063;DHT22;29727;47.606;19.130;2023-05-16T10:23:16;16.70;91.10
44063;DHT22;29727;47.606;19.130;2023-05-16T10:25:42;16.80;90.60
44063;DHT22;29727;47.606;19.130;2023-05-16T10:28:08;16.80;90.80
44063;DHT22;29727;47.606;19.130;2023-05-16T10:30:36;16.90;90.50
44063;DHT22;29727;47.606;19.130;2023-05-16T10:33:05;16.80;90.70
44063;DHT22;29727;47.606;19.130;2023-05-16T10:35:31;16.80;90.70
44063;DHT22;29727;47.606;19.130;2023-05-16T10:37:58;16.90;90.70
44063;DHT22;29727;47.606;19.130;2023-05-16T10:40:25;16.90;90.80
44063;DHT22;29727;47.606;19.130;2023-05-16T10:43:00;16.90;90.80
44063;DHT22;29727;47.606;19.130;2023-05-16T10:45:26;16.90;90.80
44063;DHT22;29727;47.606;19.130;2023-05-16T10:48:00;16.90;90.80
44063;DHT22;29727;47.606;19.130;2023-05-16T10:50:42;17.00;91.00
44063;DHT22;29727;47.606;19.130;2023-05-16T10:53:21;17.00;90.70
44063;DHT22;29727;47.606;19.130;2023-05-16T10:58:45;17.10;90.70
44063;DHT22;29727;47.606;19.130;2023-05-16T11:06:22;17.20;90.40
44063;DHT22;29727;47.606;19.130;2023-05-16T11:11:46;17.20;90.20
44063;DHT22;29727;47.606;19.130;2023-05-16T11:14:27;17.20;90.40
44063;DHT22;29727;47.606;19.130;2023-05-16T11:19:50;17.20;90.40
44063;DHT22;29727;47.606;19.130;2023-05-16T11:27:21;17.20;90.70
44063;DHT22;29727;47.606;19.130;2023-05-16T11:29:47;17.20;90.60
44063;DHT22;29727;47.606;19.130;2023-05-16T11:32:13;17.20;90.50
44063;DHT22;29727;47.606;19.130;2023-05-16T11:34:43;17.20;90.80
44063;DHT22;29727;47.606;19.130;2023-05-16T11:37:10;17.20;90.80
44063;DHT22;29727;47.606;19.130;2023-05-16T11:39:36;17.30;90.80
44063;DHT22;29727;47.606;19.130;2023-05-16T11:42:02;17.30;90.80
44063;DHT22;29727;47.606;19.130;2023-05-16T11:44:27;17.30;91.10
44063;DHT22;29727;47.606;19.130;2023-05-16T11:46:53;17.30;91.10
44063;DHT22;29727;47.606;19.130;2023-05-16T11:49:19;17.40;90.80
44063;DHT22;29727;47.606;19.130;2023-05-16T11:51:45;17.40;90.60
44063;DHT22;29727;47.606;19.130;2023-05-16T11:54:11;17.40;90.80
44063;DHT22;29727;47.606;19.130;2023-05-16T11:56:38;17.40;90.80
44063;DHT22;29727;47.606;19.130;2023-05-16T11:59:05;17.40;90.90
44063;DHT22;29727;47.606;19.130;2023-05-16T12:01:35;17.50;90.90
44063;DHT22;29727;47.606;19.130;2023-05-16T12:04:08;17.50;90.80
44063;DHT22;29727;47.606;19.130;2023-05-16T12:06:34;17.50;90.80
44063;DHT22;29727;47.606;19.130;2023-05-16T12:09:00;17.50;91.00
44063;DHT22;29727;47.606;19.130;2023-05-16T12:11:36;17.50;91.10
44063;DHT22;29727;47.606;19.130;2023-05-16T12:14:03;17.60;91.20
44063;DHT22;29727;47.606;19.130;2023-05-16T12:16:30;17.70;91.30
44063;DHT22;29727;47.606;19.130;2023-05-16T12:18:57;17.80;90.90
44063;DHT22;29727;47.606;19.130;2023-05-16T12:21:23;17.80;90.80
44063;DHT22;29727;47.606;19.130;2023-05-16T12:23:49;17.80;91.00
44063;DHT22;29727;47.606;19.130;2023-05-16T12:26:14;17.90;90.80
44063;DHT22;29727;47.606;19.130;2023-05-16T12:28:52;17.90;90.50
44063;DHT22;29727;47.606;19.130;2023-05-16T12:31:20;17.90;90.50
44063;DHT22;29727;47.606;19.130;2023-05-16T12:33:46;18.00;90.70
44063;DHT22;29727;47.606;19.130;2023-05-16T12:36:12;18.00;90.80
44063;DHT22;29727;47.606;19.130;2023-05-16T12:38:40;18.00;90.60
44063;DHT22;29727;47.606;19.130;2023-05-16T12:41:06;18.00;90.50
44063;DHT22;29727;47.606;19.130;2023-05-16T12:43:32;18.00;90.30
44063;DHT22;29727;47.606;19.130;2023-05-16T12:45:59;18.10;90.20
44063;DHT22;29727;47.606;19.130;2023-05-16T12:48:32;18.10;90.10
44063;DHT22;29727;47.606;19.130;2023-05-16T12:51:11;18.10;89.80
44063;DHT22;29727;47.606;19.130;2023-05-16T12:53:48;18.10;90.00
44063;DHT22;29727;47.606;19.130;2023-05-16T12:56:14;18.10;89.80
44063;DHT22;29727;47.606;19.130;2023-05-16T12:58:40;18.10;89.90
44063;DHT22;29727;47.606;19.130;2023-05-16T13:01:07;18.10;90.00
44063;DHT22;29727;47.606;19.130;2023-05-16T13:03:33;18.10;90.20
44063;DHT22;29727;47.606;19.130;2023-05-16T13:05:59;18.10;90.20
44063;DHT22;29727;47.606;19.130;2023-05-16T13:08:26;18.10;90.20
44063;DHT22;29727;47.606;19.130;2023-05-16T13:10:52;18.10;90.20
44063;DHT22;29727;47.606;19.130;2023-05-16T13:13:17;18.10;90.00
44063;DHT22;29727;47.606;19.130;2023-05-16T13:15:46;18.20;90.10
44063;DHT22;29727;47.606;19.130;2023-05-16T13:18:13;18.20;90.00
44063;DHT22;29727;47.606;19.130;2023-05-16T13:20:39;18.20;90.10
44063;DHT22;29727;47.606;19.130;2023-05-16T13:23:04;18.20;89.80
44063;DHT22;29727;47.606;19.130;2023-05-16T13:25:31;18.20;90.10
44063;DHT22;29727;47.606;19.130;2023-05-16T13:27:57;18.20;89.60
44063;DHT22;29727;47.606;19.130;2023-05-16T13:30:23;18.30;89.60
44063;DHT22;29727;47.606;19.130;2023-05-16T13:32:49;18.30;90.10
44063;DHT22;29727;47.606;19.130;2023-05-16T13:35:16;18.30;89.90
44063;DHT22;29727;47.606;19.130;2023-05-16T13:37:42;18.30;90.20
44063;DHT22;29727;47.606;19.130;2023-05-16T13:40:08;18.40;89.90
44063;DHT22;29727;47.606;19.130;2023-05-16T13:42:36;18.40;89.30
44063;DHT22;29727;47.606;19.130;2023-05-16T13:45:04;18.30;90.10
44063;DHT22;29727;47.606;19.130;2023-05-16T13:47:29;18.40;89.70
44063;DHT22;29727;47.606;19.130;2023-05-16T13:49:57;18.40;89.70
44063;DHT22;29727;47.606;19.130;2023-05-16T13:52:23;18.40;89.20
44063;DHT22;29727;47.606;19.130;2023-05-16T13:54:48;18.50;89.20
44063;DHT22;29727;47.606;19.130;2023-05-16T13:57:14;18.50;89.70
44063;DHT22;29727;47.606;19.130;2023-05-16T13:59:40;18.50;90.10
44063;DHT22;29727;47.606;19.130;2023-05-16T14:02:06;18.50;90.10
44063;DHT22;29727;47.606;19.130;2023-05-16T14:04:31;18.60;90.00
44063;DHT22;29727;47.606;19.130;2023-05-16T14:06:57;18.60;89.90
44063;DHT22;29727;47.606;19.130;2023-05-16T14:09:23;18.60;89.90
44063;DHT22;29727;47.606;19.130;2023-05-16T14:11:49;18.70;90.10
44063;DHT22;29727;47.606;19.130;2023-05-16T14:14:14;18.70;90.10
44063;DHT22;29727;47.606;19.130;2023-05-16T14:16:40;18.90;88.60
44063;DHT22;29727;47.606;19.130;2023-05-16T14:19:10;18.90;88.90
44063;DHT22;29727;47.606;19.130;2023-05-16T14:21:36;19.00;87.60
44063;DHT22;29727;47.606;19.130;2023-05-16T14:24:02;19.00;87.50
44063;DHT22;29727;47.606;19.130;2023-05-16T14:26:27;19.00;86.20
44063;DHT22;29727;47.606;19.130;2023-05-16T14:28:53;19.00;87.00
44063;DHT22;29727;47.606;19.130;2023-05-16T14:31:20;19.00;86.90
44063;DHT22;29727;47.606;19.130;2023-05-16T14:33:46;19.00;87.30
44063;DHT22;29727;47.606;19.130;2023-05-16T14:36:12;18.90;86.10
44063;DHT22;29727;47.606;19.130;2023-05-16T14:38:38;18.90;86.20
44063;DHT22;29727;47.606;19.130;2023-05-16T14:41:04;18.90;86.80
44063;DHT22;29727;47.606;19.130;2023-05-16T14:43:30;18.90;87.40
44063;DHT22;29727;47.606;19.130;2023-05-16T14:45:56;18.80;87.20
44063;DHT22;29727;47.606;19.130;2023-05-16T14:48:21;18.80;87.50
44063;DHT22;29727;47.606;19.130;2023-05-16T14:50:47;18.80;87.10
44063;DHT22;29727;47.606;19.130;2023-05-16T14:53:13;18.80;87.00
44063;DHT22;29727;47.606;19.130;2023-05-16T14:55:39;18.70;87.90
44063;DHT22;29727;47.606;19.130;2023-05-16T14:58:05;18.80;88.30
44063;DHT22;29727;47.606;19.130;2023-05-16T15:00:30;18.80;88.20
44063;DHT22;29727;47.606;19.130;2023-05-16T15:02:56;18.80;88.10
44063;DHT22;29727;47.606;19.130;2023-05-16T15:05:22;18.80;88.30
44063;DHT22;29727;47.606;19.130;2023-05-16T15:07:50;18.80;87.10
44063;DHT22;29727;47.606;19.130;2023-05-16T15:10:15;18.80;87.60
44063;DHT22;29727;47.606;19.130;2023-05-16T15:12:41;18.80;87.90
44063;DHT22;29727;47.606;19.130;2023-05-16T15:15:08;18.80;88.10
44063;DHT22;29727;47.606;19.130;2023-05-16T15:17:39;18.80;87.50
44063;DHT22;29727;47.606;19.130;2023-05-16T15:20:10;18.80;87.30
44063;DHT22;29727;47.606;19.130;2023-05-16T15:22:39;18.80;87.10
44063;DHT22;29727;47.606;19.130;2023-05-16T15:25:06;18.80;87.50
44063;DHT22;29727;47.606;19.130;2023-05-16T15:27:32;18.80;86.40
44063;DHT22;29727;47.606;19.130;2023-05-16T15:29:58;18.80;87.00
44063;DHT22;29727;47.606;19.130;2023-05-16T15:32:24;18.90;86.40
44063;DHT22;29727;47.606;19.130;2023-05-16T15:34:50;18.80;86.80
44063;DHT22;29727;47.606;19.130;2023-05-16T15:37:16;18.80;86.80
44063;DHT22;29727;47.606;19.130;2023-05-16T15:39:41;18.80;87.30
44063;DHT22;29727;47.606;19.130;2023-05-16T15:42:07;18.80;87.10
44063;DHT22;29727;47.606;19.130;2023-05-16T15:44:33;18.80;87.50
44063;DHT22;29727;47.606;19.130;2023-05-16T15:46:59;18.80;87.80
44063;DHT22;29727;47.606;19.130;2023-05-16T15:49:26;18.80;87.80
44063;DHT22;29727;47.606;19.130;2023-05-16T15:51:52;18.80;87.50
44063;DHT22;29727;47.606;19.130;2023-05-16T15:54:18;18.70;88.10